sensor_id;sensor_type;location;lat;lon;timestamp;P1;durP1;ratioP1;P2;durP2;ratioP2
70985;SDS011;58645;43.068;25.610;2023-11-19T00:01:40;2.33;;;1.38;;
70985;SDS011;58645;43.068;25.610;2023-11-19T00:04:06;2.65;;;1.85;;
70985;SDS011;58645;43.068;25.610;2023-11-19T00:06:32;2.30;;;1.30;;
70985;SDS011;58645;43.068;25.610;2023-11-19T00:08:57;2.17;;;1.60;;
70985;SDS011;58645;43.068;25.610;2023-11-19T00:11:23;2.35;;;1.13;;
70985;SDS011;58645;43.068;25.610;2023-11-19T00:13:49;3.25;;;1.50;;
70985;SDS011;58645;43.068;25.610;2023-11-19T00:16:15;1.85;;;0.85;;
70985;SDS011;58645;43.068;25.610;2023-11-19T00:18:41;2.30;;;1.02;;
70985;SDS011;58645;43.068;25.610;2023-11-19T00:21:07;1.48;;;1.00;;
70985;SDS011;58645;43.068;25.610;2023-11-19T00:23:35;2.33;;;1.30;;
70985;SDS011;58645;43.068;25.610;2023-11-19T00:26:02;1.75;;;1.25;;
70985;SDS011;58645;43.068;25.610;2023-11-19T00:28:31;2.15;;;1.10;;
70985;SDS011;58645;43.068;25.610;2023-11-19T00:30:58;2.22;;;1.15;;
70985;SDS011;58645;43.068;25.610;2023-11-19T00:33:24;2.33;;;1.13;;
70985;SDS011;58645;43.068;25.610;2023-11-19T00:35:49;3.58;;;1.25;;
70985;SDS011;58645;43.068;25.610;2023-11-19T00:38:15;2.83;;;1.45;;
70985;SDS011;58645;43.068;25.610;2023-11-19T00:40:41;2.13;;;0.90;;
70985;SDS011;58645;43.068;25.610;2023-11-19T00:43:07;2.30;;;1.15;;
70985;SDS011;58645;43.068;25.610;2023-11-19T00:45:33;3.15;;;1.00;;
70985;SDS011;58645;43.068;25.610;2023-11-19T00:47:59;2.63;;;1.15;;
70985;SDS011;58645;43.068;25.610;2023-11-19T00:50:25;2.25;;;1.17;;
70985;SDS011;58645;43.068;25.610;2023-11-19T00:52:51;2.90;;;1.23;;
70985;SDS011;58645;43.068;25.610;2023-11-19T00:55:17;2.25;;;1.23;;
70985;SDS011;58645;43.068;25.610;2023-11-19T00:57:42;2.42;;;1.33;;
70985;SDS011;58645;43.068;25.610;2023-11-19T01:00:08;2.42;;;1.35;;
70985;SDS011;58645;43.068;25.610;2023-11-19T01:02:45;1.90;;;0.93;;
70985;SDS011;58645;43.068;25.610;2023-11-19T01:05:11;2.15;;;1.10;;
70985;SDS011;58645;43.068;25.610;2023-11-19T01:07:39;2.13;;;1.30;;
70985;SDS011;58645;43.068;25.610;2023-11-19T01:10:05;2.55;;;1.35;;
70985;SDS011;58645;43.068;25.610;2023-11-19T01:12:33;2.85;;;1.70;;
70985;SDS011;58645;43.068;25.610;2023-11-19T01:14:59;3.13;;;1.45;;
70985;SDS011;58645;43.068;25.610;2023-11-19T01:17:24;2.90;;;1.70;;
70985;SDS011;58645;43.068;25.610;2023-11-19T01:19:50;1.85;;;1.05;;
70985;SDS011;58645;43.068;25.610;2023-11-19T01:22:16;2.20;;;1.13;;
70985;SDS011;58645;43.068;25.610;2023-11-19T01:24:41;2.90;;;1.10;;
70985;SDS011;58645;43.068;25.610;2023-11-19T01:27:07;2.33;;;1.42;;
70985;SDS011;58645;43.068;25.610;2023-11-19T01:29:33;2.55;;;1.17;;
70985;SDS011;58645;43.068;25.610;2023-11-19T01:31:59;1.73;;;0.77;;
70985;SDS011;58645;43.068;25.610;2023-11-19T01:34:25;2.03;;;1.02;;
70985;SDS011;58645;43.068;25.610;2023-11-19T01:36:50;2.10;;;1.30;;
70985;SDS011;58645;43.068;25.610;2023-11-19T01:39:16;1.45;;;0.70;;
70985;SDS011;58645;43.068;25.610;2023-11-19T01:41:42;1.38;;;0.75;;
70985;SDS011;58645;43.068;25.610;2023-11-19T01:44:08;2.22;;;1.70;;
70985;SDS011;58645;43.068;25.610;2023-11-19T01:46:34;1.80;;;0.85;;
70985;SDS011;58645;43.068;25.610;2023-11-19T01:49:00;2.15;;;1.95;;
70985;SDS011;58645;43.068;25.610;2023-11-19T01:51:27;1.58;;;1.02;;
70985;SDS011;58645;43.068;25.610;2023-11-19T01:53:53;2.40;;;1.17;;
70985;SDS011;58645;43.068;25.610;2023-11-19T01:56:21;1.70;;;1.20;;
70985;SDS011;58645;43.068;25.610;2023-11-19T01:58:48;1.63;;;1.17;;
70985;SDS011;58645;43.068;25.610;2023-11-19T02:01:15;2.42;;;2.13;;
70985;SDS011;58645;43.068;25.610;2023-11-19T02:03:40;2.05;;;1.75;;
70985;SDS011;58645;43.068;25.610;2023-11-19T02:06:07;2.35;;;1.30;;
70985;SDS011;58645;43.068;25.610;2023-11-19T02:08:35;2.10;;;0.93;;
70985;SDS011;58645;43.068;25.610;2023-11-19T02:11:02;1.98;;;1.35;;
70985;SDS011;58645;43.068;25.610;2023-11-19T02:13:28;2.22;;;1.13;;
70985;SDS011;58645;43.068;25.610;2023-11-19T02:15:54;1.90;;;1.05;;
70985;SDS011;58645;43.068;25.610;2023-11-19T02:23:16;1.60;;;0.70;;
70985;SDS011;58645;43.068;25.610;2023-11-19T02:25:43;2.38;;;1.83;;
70985;SDS011;58645;43.068;25.610;2023-11-19T02:28:12;1.08;;;0.63;;
70985;SDS011;58645;43.068;25.610;2023-11-19T02:30:38;2.13;;;1.13;;
70985;SDS011;58645;43.068;25.610;2023-11-19T02:33:04;1.42;;;0.85;;
70985;SDS011;58645;43.068;25.610;2023-11-19T02:35:33;1.40;;;0.98;;
70985;SDS011;58645;43.068;25.610;2023-11-19T02:37:59;2.05;;;0.93;;
70985;SDS011;58645;43.068;25.610;2023-11-19T02:40:32;3.42;;;1.10;;
70985;SDS011;58645;43.068;25.610;2023-11-19T02:42:57;2.17;;;1.17;;
70985;SDS011;58645;43.068;25.610;2023-11-19T02:45:23;2.10;;;1.05;;
70985;SDS011;58645;43.068;25.610;2023-11-19T02:50:17;2.67;;;1.35;;
70985;SDS011;58645;43.068;25.610;2023-11-19T02:52:53;2.00;;;1.00;;
70985;SDS011;58645;43.068;25.610;2023-11-19T02:55:21;2.92;;;1.27;;
70985;SDS011;58645;43.068;25.610;2023-11-19T02:57:49;2.08;;;1.20;;
70985;SDS011;58645;43.068;25.610;2023-11-19T03:00:15;2.78;;;1.00;;
70985;SDS011;58645;43.068;25.610;2023-11-19T03:02:42;2.08;;;1.25;;
70985;SDS011;58645;43.068;25.610;2023-11-19T03:05:13;2.03;;;1.42;;
70985;SDS011;58645;43.068;25.610;2023-11-19T03:07:43;1.92;;;1.40;;
70985;SDS011;58645;43.068;25.610;2023-11-19T03:10:12;3.55;;;1.83;;
70985;SDS011;58645;43.068;25.610;2023-11-19T03:12:41;1.90;;;0.88;;
70985;SDS011;58645;43.068;25.610;2023-11-19T03:15:08;3.08;;;1.98;;
70985;SDS011;58645;43.068;25.610;2023-11-19T03:17:38;1.98;;;1.42;;
70985;SDS011;58645;43.068;25.610;2023-11-19T03:20:05;2.33;;;2.05;;
70985;SDS011;58645;43.068;25.610;2023-11-19T03:22:34;2.28;;;1.05;;
70985;SDS011;58645;43.068;25.610;2023-11-19T03:25:02;2.17;;;1.13;;
70985;SDS011;58645;43.068;25.610;2023-11-19T03:27:28;2.72;;;1.70;;
70985;SDS011;58645;43.068;25.610;2023-11-19T03:29:53;2.28;;;1.58;;
70985;SDS011;58645;43.068;25.610;2023-11-19T03:32:19;3.33;;;1.70;;
70985;SDS011;58645;43.068;25.610;2023-11-19T03:34:45;1.92;;;1.17;;
70985;SDS011;58645;43.068;25.610;2023-11-19T03:37:10;3.35;;;2.10;;
70985;SDS011;58645;43.068;25.610;2023-11-19T03:39:36;2.22;;;1.13;;
70985;SDS011;58645;43.068;25.610;2023-11-19T03:42:02;3.80;;;1.40;;
70985;SDS011;58645;43.068;25.610;2023-11-19T03:44:28;2.42;;;1.45;;
70985;SDS011;58645;43.068;25.610;2023-11-19T03:46:54;2.40;;;1.42;;
70985;SDS011;58645;43.068;25.610;2023-11-19T03:49:19;3.17;;;1.38;;
70985;SDS011;58645;43.068;25.610;2023-11-19T03:51:45;2.63;;;1.35;;
70985;SDS011;58645;43.068;25.610;2023-11-19T03:54:11;2.35;;;1.67;;
70985;SDS011;58645;43.068;25.610;2023-11-19T03:56:36;1.98;;;1.10;;
70985;SDS011;58645;43.068;25.610;2023-11-19T03:59:02;2.20;;;0.95;;
70985;SDS011;58645;43.068;25.610;2023-11-19T04:01:28;2.67;;;1.58;;
70985;SDS011;58645;43.068;25.610;2023-11-19T04:03:54;2.83;;;0.88;;
70985;SDS011;58645;43.068;25.610;2023-11-19T04:06:21;2.67;;;1.35;;
70985;SDS011;58645;43.068;25.610;2023-11-19T04:08:46;2.97;;;2.00;;
70985;SDS011;58645;43.068;25.610;2023-11-19T04:11:12;2.45;;;1.30;;
70985;SDS011;58645;43.068;25.610;2023-11-19T04:13:38;2.65;;;1.13;;
70985;SDS011;58645;43.068;25.610;2023-11-19T04:16:04;2.28;;;0.98;;
70985;SDS011;58645;43.068;25.610;2023-11-19T04:18:29;2.90;;;1.60;;
70985;SDS011;58645;43.068;25.610;2023-11-19T04:20:57;2.67;;;1.35;;
70985;SDS011;58645;43.068;25.610;2023-11-19T04:23:22;3.17;;;1.88;;
70985;SDS011;58645;43.068;25.610;2023-11-19T04:25:50;3.13;;;1.15;;
70985;SDS011;58645;43.068;25.610;2023-11-19T04:28:15;2.90;;;1.30;;
70985;SDS011;58645;43.068;25.610;2023-11-19T04:30:41;2.50;;;1.33;;
70985;SDS011;58645;43.068;25.610;2023-11-19T04:33:07;3.38;;;1.67;;
70985;SDS011;58645;43.068;25.610;2023-11-19T04:35:32;2.80;;;1.42;;
70985;SDS011;58645;43.068;25.610;2023-11-19T04:37:58;3.13;;;1.60;;
70985;SDS011;58645;43.068;25.610;2023-11-19T04:40:24;2.55;;;1.63;;
70985;SDS011;58645;43.068;25.610;2023-11-19T04:42:50;2.88;;;1.80;;
70985;SDS011;58645;43.068;25.610;2023-11-19T04:45:16;2.08;;;0.98;;
70985;SDS011;58645;43.068;25.610;2023-11-19T04:47:44;2.42;;;1.42;;
70985;SDS011;58645;43.068;25.610;2023-11-19T04:50:10;2.28;;;1.63;;
70985;SDS011;58645;43.068;25.610;2023-11-19T04:52:39;2.70;;;2.00;;
70985;SDS011;58645;43.068;25.610;2023-11-19T04:55:10;2.00;;;1.13;;
70985;SDS011;58645;43.068;25.610;2023-11-19T04:57:39;3.90;;;1.52;;
70985;SDS011;58645;43.068;25.610;2023-11-19T05:00:05;3.67;;;2.10;;
70985;SDS011;58645;43.068;25.610;2023-11-19T05:02:34;2.08;;;0.98;;
70985;SDS011;58645;43.068;25.610;2023-11-19T05:07:26;4.93;;;2.33;;
70985;SDS011;58645;43.068;25.610;2023-11-19T05:09:52;3.35;;;2.10;;
70985;SDS011;58645;43.068;25.610;2023-11-19T05:12:17;5.07;;;2.70;;
70985;SDS011;58645;43.068;25.610;2023-11-19T05:14:43;2.97;;;2.00;;
70985;SDS011;58645;43.068;25.610;2023-11-19T05:17:14;3.63;;;2.35;;
70985;SDS011;58645;43.068;25.610;2023-11-19T05:19:40;3.55;;;2.30;;
70985;SDS011;58645;43.068;25.610;2023-11-19T05:22:06;3.50;;;1.67;;
70985;SDS011;58645;43.068;25.610;2023-11-19T05:24:32;3.60;;;1.90;;
70985;SDS011;58645;43.068;25.610;2023-11-19T05:26:58;4.57;;;2.53;;
70985;SDS011;58645;43.068;25.610;2023-11-19T05:29:24;3.05;;;1.80;;
70985;SDS011;58645;43.068;25.610;2023-11-19T05:31:49;3.45;;;2.38;;
70985;SDS011;58645;43.068;25.610;2023-11-19T05:34:15;3.80;;;2.50;;
70985;SDS011;58645;43.068;25.610;2023-11-19T05:36:41;4.43;;;2.03;;
70985;SDS011;58645;43.068;25.610;2023-11-19T05:39:06;5.40;;;2.42;;
70985;SDS011;58645;43.068;25.610;2023-11-19T05:41:32;3.85;;;2.30;;
70985;SDS011;58645;43.068;25.610;2023-11-19T05:43:58;3.35;;;2.13;;
70985;SDS011;58645;43.068;25.610;2023-11-19T05:46:23;3.53;;;1.98;;
70985;SDS011;58645;43.068;25.610;2023-11-19T05:48:52;4.13;;;2.42;;
70985;SDS011;58645;43.068;25.610;2023-11-19T05:51:17;5.70;;;2.25;;
70985;SDS011;58645;43.068;25.610;2023-11-19T05:53:43;7.90;;;2.33;;
70985;SDS011;58645;43.068;25.610;2023-11-19T05:56:15;5.70;;;2.90;;
70985;SDS011;58645;43.068;25.610;2023-11-19T05:58:46;4.07;;;2.08;;
70985;SDS011;58645;43.068;25.610;2023-11-19T06:01:13;2.97;;;2.08;;
70985;SDS011;58645;43.068;25.610;2023-11-19T06:03:39;4.70;;;2.20;;
70985;SDS011;58645;43.068;25.610;2023-11-19T06:06:05;4.63;;;2.67;;
70985;SDS011;58645;43.068;25.610;2023-11-19T06:08:31;4.43;;;2.90;;
70985;SDS011;58645;43.068;25.610;2023-11-19T06:10:57;4.18;;;2.25;;
70985;SDS011;58645;43.068;25.610;2023-11-19T06:13:23;5.47;;;3.40;;
70985;SDS011;58645;43.068;25.610;2023-11-19T06:15:50;5.43;;;3.03;;
70985;SDS011;58645;43.068;25.610;2023-11-19T06:18:16;5.15;;;3.00;;
70985;SDS011;58645;43.068;25.610;2023-11-19T06:20:45;3.90;;;2.80;;
70985;SDS011;58645;43.068;25.610;2023-11-19T06:23:10;5.00;;;3.40;;
70985;SDS011;58645;43.068;25.610;2023-11-19T06:25:36;5.10;;;4.13;;
70985;SDS011;58645;43.068;25.610;2023-11-19T06:28:02;3.47;;;2.88;;
70985;SDS011;58645;43.068;25.610;2023-11-19T06:30:28;4.05;;;2.10;;
70985;SDS011;58645;43.068;25.610;2023-11-19T06:32:55;4.32;;;2.33;;
70985;SDS011;58645;43.068;25.610;2023-11-19T06:35:21;4.05;;;2.83;;
70985;SDS011;58645;43.068;25.610;2023-11-19T06:37:47;3.20;;;1.95;;
70985;SDS011;58645;43.068;25.610;2023-11-19T06:40:12;4.88;;;3.60;;
70985;SDS011;58645;43.068;25.610;2023-11-19T06:42:40;4.20;;;2.70;;
70985;SDS011;58645;43.068;25.610;2023-11-19T06:45:06;4.22;;;2.75;;
70985;SDS011;58645;43.068;25.610;2023-11-19T06:47:32;3.85;;;2.40;;
70985;SDS011;58645;43.068;25.610;2023-11-19T06:49:58;5.80;;;4.18;;
70985;SDS011;58645;43.068;25.610;2023-11-19T06:52:24;5.00;;;2.72;;
70985;SDS011;58645;43.068;25.610;2023-11-19T06:54:50;4.45;;;3.33;;
70985;SDS011;58645;43.068;25.610;2023-11-19T06:57:16;6.07;;;2.92;;
70985;SDS011;58645;43.068;25.610;2023-11-19T06:59:42;5.47;;;3.03;;
70985;SDS011;58645;43.068;25.610;2023-11-19T07:02:07;5.40;;;2.40;;
70985;SDS011;58645;43.068;25.610;2023-11-19T07:04:34;8.40;;;3.78;;
70985;SDS011;58645;43.068;25.610;2023-11-19T07:09:26;5.80;;;3.15;;
70985;SDS011;58645;43.068;25.610;2023-11-19T07:11:52;4.55;;;3.33;;
70985;SDS011;58645;43.068;25.610;2023-11-19T07:14:19;4.80;;;2.35;;
70985;SDS011;58645;43.068;25.610;2023-11-19T07:16:44;5.53;;;3.17;;
70985;SDS011;58645;43.068;25.610;2023-11-19T07:19:11;4.85;;;3.60;;
70985;SDS011;58645;43.068;25.610;2023-11-19T07:21:37;4.95;;;3.15;;
70985;SDS011;58645;43.068;25.610;2023-11-19T07:24:09;5.25;;;2.97;;
70985;SDS011;58645;43.068;25.610;2023-11-19T07:26:35;7.78;;;2.90;;
70985;SDS011;58645;43.068;25.610;2023-11-19T07:29:02;4.43;;;2.72;;
70985;SDS011;58645;43.068;25.610;2023-11-19T07:31:28;4.93;;;2.90;;
70985;SDS011;58645;43.068;25.610;2023-11-19T07:33:54;6.93;;;3.53;;
70985;SDS011;58645;43.068;25.610;2023-11-19T07:36:19;5.55;;;2.75;;
70985;SDS011;58645;43.068;25.610;2023-11-19T07:38:45;5.13;;;2.55;;
70985;SDS011;58645;43.068;25.610;2023-11-19T07:41:12;5.07;;;3.28;;
70985;SDS011;58645;43.068;25.610;2023-11-19T07:43:43;5.45;;;3.42;;
70985;SDS011;58645;43.068;25.610;2023-11-19T07:46:13;4.25;;;2.53;;
70985;SDS011;58645;43.068;25.610;2023-11-19T07:48:39;4.63;;;2.80;;
70985;SDS011;58645;43.068;25.610;2023-11-19T07:51:07;5.65;;;3.47;;
70985;SDS011;58645;43.068;25.610;2023-11-19T07:53:33;4.18;;;3.47;;
70985;SDS011;58645;43.068;25.610;2023-11-19T07:55:59;4.47;;;2.60;;
70985;SDS011;58645;43.068;25.610;2023-11-19T07:58:25;4.38;;;3.13;;
70985;SDS011;58645;43.068;25.610;2023-11-19T08:00:51;4.00;;;2.97;;
70985;SDS011;58645;43.068;25.610;2023-11-19T08:03:17;5.38;;;2.83;;
70985;SDS011;58645;43.068;25.610;2023-11-19T08:05:47;4.18;;;3.03;;
70985;SDS011;58645;43.068;25.610;2023-11-19T08:08:13;5.70;;;3.55;;
70985;SDS011;58645;43.068;25.610;2023-11-19T08:10:38;4.80;;;2.47;;
70985;SDS011;58645;43.068;25.610;2023-11-19T08:13:05;5.82;;;3.60;;
70985;SDS011;58645;43.068;25.610;2023-11-19T08:15:31;4.50;;;3.05;;
70985;SDS011;58645;43.068;25.610;2023-11-19T08:17:57;5.78;;;3.90;;
70985;SDS011;58645;43.068;25.610;2023-11-19T08:20:22;5.18;;;3.03;;
70985;SDS011;58645;43.068;25.610;2023-11-19T08:22:48;4.57;;;3.28;;
70985;SDS011;58645;43.068;25.610;2023-11-19T08:25:14;4.57;;;3.30;;
70985;SDS011;58645;43.068;25.610;2023-11-19T08:27:40;4.72;;;2.75;;
70985;SDS011;58645;43.068;25.610;2023-11-19T08:30:06;3.75;;;2.70;;
70985;SDS011;58645;43.068;25.610;2023-11-19T08:32:34;3.08;;;2.08;;
70985;SDS011;58645;43.068;25.610;2023-11-19T08:35:00;4.45;;;3.00;;
70985;SDS011;58645;43.068;25.610;2023-11-19T08:37:26;3.85;;;2.65;;
70985;SDS011;58645;43.068;25.610;2023-11-19T08:39:52;4.82;;;3.08;;
70985;SDS011;58645;43.068;25.610;2023-11-19T08:42:18;3.38;;;2.78;;
70985;SDS011;58645;43.068;25.610;2023-11-19T08:44:48;3.58;;;2.25;;
70985;SDS011;58645;43.068;25.610;2023-11-19T08:47:19;4.53;;;2.63;;
70985;SDS011;58645;43.068;25.610;2023-11-19T08:49:47;3.30;;;2.13;;
70985;SDS011;58645;43.068;25.610;2023-11-19T08:52:13;3.03;;;2.40;;
70985;SDS011;58645;43.068;25.610;2023-11-19T08:54:42;7.60;;;2.10;;
70985;SDS011;58645;43.068;25.610;2023-11-19T08:57:08;3.97;;;2.92;;
70985;SDS011;58645;43.068;25.610;2023-11-19T09:02:00;3.22;;;2.25;;
70985;SDS011;58645;43.068;25.610;2023-11-19T09:04:27;2.40;;;1.95;;
70985;SDS011;58645;43.068;25.610;2023-11-19T09:06:52;3.00;;;2.50;;
70985;SDS011;58645;43.068;25.610;2023-11-19T09:09:18;3.65;;;2.50;;
70985;SDS011;58645;43.068;25.610;2023-11-19T09:11:44;3.60;;;2.28;;
70985;SDS011;58645;43.068;25.610;2023-11-19T09:14:10;3.97;;;1.98;;
70985;SDS011;58645;43.068;25.610;2023-11-19T09:16:35;3.35;;;2.92;;
70985;SDS011;58645;43.068;25.610;2023-11-19T09:19:01;4.20;;;3.10;;
70985;SDS011;58645;43.068;25.610;2023-11-19T09:21:28;3.33;;;2.20;;
70985;SDS011;58645;43.068;25.610;2023-11-19T09:23:56;4.32;;;2.28;;
70985;SDS011;58645;43.068;25.610;2023-11-19T09:26:22;3.05;;;2.10;;
70985;SDS011;58645;43.068;25.610;2023-11-19T09:28:48;2.88;;;2.45;;
70985;SDS011;58645;43.068;25.610;2023-11-19T09:31:14;3.17;;;2.50;;
70985;SDS011;58645;43.068;25.610;2023-11-19T09:33:43;2.80;;;2.00;;
70985;SDS011;58645;43.068;25.610;2023-11-19T09:36:09;3.35;;;2.42;;
70985;SDS011;58645;43.068;25.610;2023-11-19T09:38:38;3.72;;;2.58;;
70985;SDS011;58645;43.068;25.610;2023-11-19T09:41:05;3.70;;;2.85;;
70985;SDS011;58645;43.068;25.610;2023-11-19T09:43:34;3.08;;;2.00;;
70985;SDS011;58645;43.068;25.610;2023-11-19T09:46:04;3.00;;;1.95;;
70985;SDS011;58645;43.068;25.610;2023-11-19T09:48:35;3.63;;;2.60;;
70985;SDS011;58645;43.068;25.610;2023-11-19T09:51:02;3.65;;;2.67;;
70985;SDS011;58645;43.068;25.610;2023-11-19T09:53:29;4.10;;;2.78;;
70985;SDS011;58645;43.068;25.610;2023-11-19T09:55:56;3.97;;;3.28;;
70985;SDS011;58645;43.068;25.610;2023-11-19T09:58:22;3.08;;;2.20;;
70985;SDS011;58645;43.068;25.610;2023-11-19T10:00:48;3.20;;;2.90;;
70985;SDS011;58645;43.068;25.610;2023-11-19T10:03:15;2.63;;;2.28;;
70985;SDS011;58645;43.068;25.610;2023-11-19T10:05:41;4.32;;;3.45;;
70985;SDS011;58645;43.068;25.610;2023-11-19T10:08:07;3.50;;;2.75;;
70985;SDS011;58645;43.068;25.610;2023-11-19T10:10:39;4.20;;;3.22;;
70985;SDS011;58645;43.068;25.610;2023-11-19T10:13:04;4.50;;;2.95;;
70985;SDS011;58645;43.068;25.610;2023-11-19T10:15:33;4.35;;;3.45;;
70985;SDS011;58645;43.068;25.610;2023-11-19T10:18:01;3.70;;;3.30;;
70985;SDS011;58645;43.068;25.610;2023-11-19T10:20:29;3.50;;;2.90;;
70985;SDS011;58645;43.068;25.610;2023-11-19T10:23:05;3.90;;;2.60;;
70985;SDS011;58645;43.068;25.610;2023-11-19T10:25:31;3.17;;;2.50;;
70985;SDS011;58645;43.068;25.610;2023-11-19T10:27:58;3.78;;;2.25;;
70985;SDS011;58645;43.068;25.610;2023-11-19T10:30:25;4.20;;;3.00;;
70985;SDS011;58645;43.068;25.610;2023-11-19T10:33:10;5.72;;;4.50;;
70985;SDS011;58645;43.068;25.610;2023-11-19T10:38:23;5.70;;;2.50;;
70985;SDS011;58645;43.068;25.610;2023-11-19T10:40:50;3.17;;;2.50;;
70985;SDS011;58645;43.068;25.610;2023-11-19T10:43:19;2.72;;;2.15;;
70985;SDS011;58645;43.068;25.610;2023-11-19T10:45:49;3.08;;;2.58;;
70985;SDS011;58645;43.068;25.610;2023-11-19T10:50:42;3.33;;;2.72;;
70985;SDS011;58645;43.068;25.610;2023-11-19T10:53:10;3.28;;;2.35;;
70985;SDS011;58645;43.068;25.610;2023-11-19T10:55:38;3.63;;;3.00;;
70985;SDS011;58645;43.068;25.610;2023-11-19T10:58:09;2.80;;;2.50;;
70985;SDS011;58645;43.068;25.610;2023-11-19T11:00:44;3.22;;;2.75;;
70985;SDS011;58645;43.068;25.610;2023-11-19T11:03:21;3.42;;;2.70;;
70985;SDS011;58645;43.068;25.610;2023-11-19T11:08:16;4.45;;;3.00;;
70985;SDS011;58645;43.068;25.610;2023-11-19T11:10:43;4.95;;;3.95;;
70985;SDS011;58645;43.068;25.610;2023-11-19T11:13:16;5.95;;;4.43;;
70985;SDS011;58645;43.068;25.610;2023-11-19T11:15:43;6.45;;;4.80;;
70985;SDS011;58645;43.068;25.610;2023-11-19T11:18:12;3.58;;;3.25;;
70985;SDS011;58645;43.068;25.610;2023-11-19T11:20:38;4.88;;;3.55;;
70985;SDS011;58645;43.068;25.610;2023-11-19T11:28:28;6.35;;;4.35;;
70985;SDS011;58645;43.068;25.610;2023-11-19T11:37:06;3.63;;;2.50;;
70985;SDS011;58645;43.068;25.610;2023-11-19T11:39:57;4.95;;;3.50;;
70985;SDS011;58645;43.068;25.610;2023-11-19T11:48:04;5.22;;;3.13;;
70985;SDS011;58645;43.068;25.610;2023-11-19T11:50:34;6.95;;;5.00;;
70985;SDS011;58645;43.068;25.610;2023-11-19T11:53:18;10.18;;;6.82;;
70985;SDS011;58645;43.068;25.610;2023-11-19T11:58:13;5.63;;;3.83;;
70985;SDS011;58645;43.068;25.610;2023-11-19T12:00:48;5.93;;;5.00;;
70985;SDS011;58645;43.068;25.610;2023-11-19T12:03:16;5.25;;;4.40;;
70985;SDS011;58645;43.068;25.610;2023-11-19T12:05:47;5.95;;;4.82;;
70985;SDS011;58645;43.068;25.610;2023-11-19T12:08:14;7.47;;;4.88;;
70985;SDS011;58645;43.068;25.610;2023-11-19T12:10:49;5.57;;;4.40;;
70985;SDS011;58645;43.068;25.610;2023-11-19T12:13:16;6.47;;;4.15;;
70985;SDS011;58645;43.068;25.610;2023-11-19T12:20:54;4.72;;;3.28;;
70985;SDS011;58645;43.068;25.610;2023-11-19T12:23:21;6.85;;;5.30;;
70985;SDS011;58645;43.068;25.610;2023-11-19T12:25:47;8.75;;;6.68;;
70985;SDS011;58645;43.068;25.610;2023-11-19T12:28:14;5.88;;;4.40;;
70985;SDS011;58645;43.068;25.610;2023-11-19T12:30:43;5.22;;;4.18;;
70985;SDS011;58645;43.068;25.610;2023-11-19T12:33:10;6.40;;;4.90;;
70985;SDS011;58645;43.068;25.610;2023-11-19T12:35:40;6.30;;;4.88;;
70985;SDS011;58645;43.068;25.610;2023-11-19T12:38:07;6.32;;;3.92;;
70985;SDS011;58645;43.068;25.610;2023-11-19T12:40:33;5.03;;;3.65;;
70985;SDS011;58645;43.068;25.610;2023-11-19T12:42:58;3.67;;;2.53;;
70985;SDS011;58645;43.068;25.610;2023-11-19T12:45:34;8.20;;;4.68;;
70985;SDS011;58645;43.068;25.610;2023-11-19T12:48:07;5.60;;;4.18;;
70985;SDS011;58645;43.068;25.610;2023-11-19T12:53:22;5.20;;;3.47;;
70985;SDS011;58645;43.068;25.610;2023-11-19T12:55:49;6.85;;;5.07;;
70985;SDS011;58645;43.068;25.610;2023-11-19T12:58:30;6.55;;;4.95;;
70985;SDS011;58645;43.068;25.610;2023-11-19T13:01:03;6.47;;;4.85;;
70985;SDS011;58645;43.068;25.610;2023-11-19T13:03:33;6.55;;;4.28;;
70985;SDS011;58645;43.068;25.610;2023-11-19T13:06:02;5.75;;;3.92;;
70985;SDS011;58645;43.068;25.610;2023-11-19T13:08:46;6.30;;;4.07;;
70985;SDS011;58645;43.068;25.610;2023-11-19T13:11:15;7.68;;;4.97;;
70985;SDS011;58645;43.068;25.610;2023-11-19T13:13:55;5.70;;;4.55;;
70985;SDS011;58645;43.068;25.610;2023-11-19T13:16:26;6.72;;;4.05;;
70985;SDS011;58645;43.068;25.610;2023-11-19T13:18:52;4.20;;;2.92;;
70985;SDS011;58645;43.068;25.610;2023-11-19T13:21:18;3.47;;;2.97;;
70985;SDS011;58645;43.068;25.610;2023-11-19T13:23:44;4.95;;;3.80;;
70985;SDS011;58645;43.068;25.610;2023-11-19T13:26:10;5.93;;;4.32;;
70985;SDS011;58645;43.068;25.610;2023-11-19T13:28:36;7.25;;;4.68;;
70985;SDS011;58645;43.068;25.610;2023-11-19T13:31:03;6.50;;;3.88;;
70985;SDS011;58645;43.068;25.610;2023-11-19T13:33:29;12.18;;;8.10;;
70985;SDS011;58645;43.068;25.610;2023-11-19T13:35:55;7.78;;;5.95;;
70985;SDS011;58645;43.068;25.610;2023-11-19T13:38:21;6.65;;;3.92;;
70985;SDS011;58645;43.068;25.610;2023-11-19T13:40:49;5.30;;;3.88;;
70985;SDS011;58645;43.068;25.610;2023-11-19T13:43:14;4.95;;;3.15;;
70985;SDS011;58645;43.068;25.610;2023-11-19T13:45:40;5.25;;;3.50;;
70985;SDS011;58645;43.068;25.610;2023-11-19T13:48:06;4.40;;;2.33;;
70985;SDS011;58645;43.068;25.610;2023-11-19T13:50:32;4.55;;;2.67;;
70985;SDS011;58645;43.068;25.610;2023-11-19T13:52:59;3.58;;;3.15;;
70985;SDS011;58645;43.068;25.610;2023-11-19T13:55:25;3.83;;;2.83;;
70985;SDS011;58645;43.068;25.610;2023-11-19T13:57:51;4.70;;;2.63;;
70985;SDS011;58645;43.068;25.610;2023-11-19T14:00:17;3.97;;;2.25;;
70985;SDS011;58645;43.068;25.610;2023-11-19T14:02:44;4.55;;;3.35;;
70985;SDS011;58645;43.068;25.610;2023-11-19T14:05:10;4.15;;;3.47;;
70985;SDS011;58645;43.068;25.610;2023-11-19T14:07:36;4.47;;;3.22;;
70985;SDS011;58645;43.068;25.610;2023-11-19T14:10:03;6.20;;;4.18;;
70985;SDS011;58645;43.068;25.610;2023-11-19T14:12:30;4.00;;;2.42;;
70985;SDS011;58645;43.068;25.610;2023-11-19T14:14:57;5.50;;;3.15;;
70985;SDS011;58645;43.068;25.610;2023-11-19T14:17:23;4.93;;;3.28;;
70985;SDS011;58645;43.068;25.610;2023-11-19T14:19:50;4.70;;;3.17;;
70985;SDS011;58645;43.068;25.610;2023-11-19T14:22:16;4.70;;;3.70;;
70985;SDS011;58645;43.068;25.610;2023-11-19T14:24:42;5.45;;;3.25;;
70985;SDS011;58645;43.068;25.610;2023-11-19T14:27:08;4.15;;;2.55;;
70985;SDS011;58645;43.068;25.610;2023-11-19T14:32:01;4.32;;;2.90;;
70985;SDS011;58645;43.068;25.610;2023-11-19T14:36:54;7.22;;;3.03;;
70985;SDS011;58645;43.068;25.610;2023-11-19T14:39:20;4.78;;;2.70;;
70985;SDS011;58645;43.068;25.610;2023-11-19T14:41:45;4.93;;;2.80;;
70985;SDS011;58645;43.068;25.610;2023-11-19T14:44:12;5.05;;;3.55;;
70985;SDS011;58645;43.068;25.610;2023-11-19T14:46:37;4.78;;;2.88;;
70985;SDS011;58645;43.068;25.610;2023-11-19T14:49:03;6.35;;;3.97;;
70985;SDS011;58645;43.068;25.610;2023-11-19T14:51:29;6.82;;;3.30;;
70985;SDS011;58645;43.068;25.610;2023-11-19T14:53:55;5.75;;;4.15;;
70985;SDS011;58645;43.068;25.610;2023-11-19T14:56:21;6.85;;;4.75;;
70985;SDS011;58645;43.068;25.610;2023-11-19T14:58:47;7.82;;;4.43;;
70985;SDS011;58645;43.068;25.610;2023-11-19T15:01:15;6.25;;;4.32;;
70985;SDS011;58645;43.068;25.610;2023-11-19T15:03:41;8.27;;;4.45;;
70985;SDS011;58645;43.068;25.610;2023-11-19T15:06:07;5.55;;;3.58;;
70985;SDS011;58645;43.068;25.610;2023-11-19T15:08:33;6.82;;;4.22;;
70985;SDS011;58645;43.068;25.610;2023-11-19T15:10:59;6.75;;;4.00;;
70985;SDS011;58645;43.068;25.610;2023-11-19T15:13:27;8.55;;;4.68;;
70985;SDS011;58645;43.068;25.610;2023-11-19T15:15:53;7.60;;;4.15;;
70985;SDS011;58645;43.068;25.610;2023-11-19T15:18:20;7.45;;;4.50;;
70985;SDS011;58645;43.068;25.610;2023-11-19T15:20:46;6.50;;;3.58;;
70985;SDS011;58645;43.068;25.610;2023-11-19T15:23:12;7.03;;;4.88;;
70985;SDS011;58645;43.068;25.610;2023-11-19T15:25:38;6.72;;;4.03;;
70985;SDS011;58645;43.068;25.610;2023-11-19T15:28:04;7.18;;;4.50;;